PWSweather.com
Personal Weather Stations
Station Observations
BERGSLAGEN
Bergslagen, NoraSE

BergslagenNoraSE

Lat: 59.532278, Lon: 15.016132

Elevation: 492

Station Type: Davis Vantage Pro2 Plus Wireless

http://www.weather.tallasen.se

High Low Average
Temperature 28.2°F-2.1°F 20.5°F-6.4°F 23.5°F-4.7°F
Dew Point 21.1°F-6.1°F 13.5°F-10.3°F 17.0°F-8.3°F
Winds 11.0 mph -17.7 mph - Calm Calm 2.7 mph 4.3 mph
Wind Gusts 22.0 mph35.4 mph -- 6.6 mph10.6 mph
Humidity 91% 64% 76%
Pressure 29.44 in997.00 in 29.33 in993.20 in -
Precipitation 0.00 in0.00 in - -
Hour Temp Dew Point Humidity Winds Wind Gusts Pressure Precip Precip Rate Daily Precip Total
12:00 AM 28.2°F-2.1°C 17.6°F-8.0°C 64% 9.0 mph WNW14.5 kmh WNW 21.0 mph33.8 kmh 29.34 in993.6 mb 0.00 in0.0 mm 0.00 in0.0 mm 0.00 in0.0 mm
12:15 AM 27.9°F-2.3°C 18.3°F-7.6°C 67% 10.0 mph WNW16.1 kmh WNW 20.0 mph32.2 kmh 29.34 in993.6 mb 0.00 in0.0 mm 0.00 in0.0 mm 0.00 in0.0 mm
12:30 AM 27.7°F-2.4°C 18.8°F-7.3°C 69% 10.0 mph WNW16.1 kmh WNW 19.0 mph30.6 kmh 29.34 in993.6 mb 0.00 in0.0 mm 0.00 in0.0 mm 0.00 in0.0 mm
12:45 AM 27.7°F-2.4°C 19.2°F-7.1°C 70% 11.0 mph WNW17.7 kmh WNW 18.0 mph29.0 kmh 29.34 in993.6 mb 0.00 in0.0 mm 0.00 in0.0 mm 0.00 in0.0 mm
01:00 AM 27.3°F-2.6°C 19.2°F-7.1°C 71% 9.0 mph WNW14.5 kmh WNW 18.0 mph29.0 kmh 29.35 in993.9 mb 0.00 in0.0 mm 0.00 in0.0 mm 0.00 in0.0 mm
01:15 AM 27.3°F-2.6°C 19.2°F-7.1°C 71% 10.0 mph WNW16.1 kmh WNW 19.0 mph30.6 kmh 29.35 in993.9 mb 0.00 in0.0 mm 0.00 in0.0 mm 0.00 in0.0 mm
01:30 AM 27.1°F-2.7°C 19.0°F-7.2°C 71% 9.0 mph W14.5 kmh W 18.0 mph29.0 kmh 29.36 in994.2 mb 0.00 in0.0 mm 0.00 in0.0 mm 0.00 in0.0 mm
01:45 AM 27.1°F-2.7°C 19.0°F-7.2°C 71% 9.0 mph WNW14.5 kmh WNW 18.0 mph29.0 kmh 29.36 in994.2 mb 0.00 in0.0 mm 0.00 in0.0 mm 0.00 in0.0 mm
02:00 AM 27.1°F-2.7°C 19.3°F-7.1°C 72% 9.0 mph WNW14.5 kmh WNW 17.0 mph27.4 kmh 29.36 in994.2 mb 0.00 in0.0 mm 0.00 in0.0 mm 0.00 in0.0 mm
02:15 AM 27.0°F-2.8°C 19.1°F-7.2°C 72% 10.0 mph WNW16.1 kmh WNW 17.0 mph27.4 kmh 29.37 in994.6 mb 0.00 in0.0 mm 0.00 in0.0 mm 0.00 in0.0 mm
02:30 AM 26.8°F-2.9°C 18.6°F-7.4°C 71% 9.0 mph WNW14.5 kmh WNW 19.0 mph30.6 kmh 29.37 in994.6 mb 0.00 in0.0 mm 0.00 in0.0 mm 0.00 in0.0 mm
02:45 AM 26.6°F-3.0°C 18.5°F-7.5°C 71% 8.0 mph WNW12.9 kmh WNW 14.0 mph22.5 kmh 29.37 in994.6 mb 0.00 in0.0 mm 0.00 in0.0 mm 0.00 in0.0 mm
03:00 AM 26.6°F-3.0°C 18.5°F-7.5°C 71% 7.0 mph WNW11.3 kmh WNW 22.0 mph35.4 kmh 29.38 in994.9 mb 0.00 in0.0 mm 0.00 in0.0 mm 0.00 in0.0 mm
03:15 AM 26.6°F-3.0°C 18.1°F-7.7°C 70% 8.0 mph WNW12.9 kmh WNW 18.0 mph29.0 kmh 29.38 in994.9 mb 0.00 in0.0 mm 0.00 in0.0 mm 0.00 in0.0 mm
03:30 AM 26.6°F-3.0°C 18.1°F-7.7°C 70% 8.0 mph WNW12.9 kmh WNW 17.0 mph27.4 kmh 29.38 in994.9 mb 0.00 in0.0 mm 0.00 in0.0 mm 0.00 in0.0 mm
03:45 AM 26.4°F-3.1°C 17.6°F-8.0°C 69% 9.0 mph WNW14.5 kmh WNW 18.0 mph29.0 kmh 29.38 in994.9 mb 0.00 in0.0 mm 0.00 in0.0 mm 0.00 in0.0 mm
04:00 AM 26.2°F-3.2°C 17.1°F-8.3°C 68% 6.0 mph WNW9.7 kmh WNW 14.0 mph22.5 kmh 29.38 in994.9 mb 0.00 in0.0 mm 0.00 in0.0 mm 0.00 in0.0 mm
04:15 AM 26.2°F-3.2°C 16.8°F-8.4°C 67% 7.0 mph WNW11.3 kmh WNW 17.0 mph27.4 kmh 29.38 in994.9 mb 0.00 in0.0 mm 0.00 in0.0 mm 0.00 in0.0 mm
04:30 AM 26.2°F-3.2°C 16.8°F-8.4°C 67% 8.0 mph WNW12.9 kmh WNW 17.0 mph27.4 kmh 29.39 in995.3 mb 0.00 in0.0 mm 0.00 in0.0 mm 0.00 in0.0 mm
04:45 AM 26.2°F-3.2°C 16.8°F-8.4°C 67% 7.0 mph WNW11.3 kmh WNW 20.0 mph32.2 kmh 29.39 in995.3 mb 0.00 in0.0 mm 0.00 in0.0 mm 0.00 in0.0 mm
05:00 AM 25.9°F-3.4°C 16.4°F-8.7°C 67% 3.0 mph NW4.8 kmh NW 11.0 mph17.7 kmh 29.40 in995.6 mb 0.00 in0.0 mm 0.00 in0.0 mm 0.00 in0.0 mm
05:15 AM 25.7°F-3.5°C 16.6°F-8.6°C 68% 4.0 mph WNW6.4 kmh WNW 14.0 mph22.5 kmh 29.40 in995.6 mb 0.00 in0.0 mm 0.00 in0.0 mm 0.00 in0.0 mm
05:30 AM 25.5°F-3.6°C 16.1°F-8.8°C 67% 3.0 mph NW4.8 kmh NW 11.0 mph17.7 kmh 29.40 in995.6 mb 0.00 in0.0 mm 0.00 in0.0 mm 0.00 in0.0 mm
05:45 AM 25.2°F-3.8°C 16.1°F-8.8°C 68% 3.0 mph NW4.8 kmh NW 10.0 mph16.1 kmh 29.41 in995.9 mb 0.00 in0.0 mm 0.00 in0.0 mm 0.00 in0.0 mm
06:00 AM 24.6°F-4.1°C 15.9°F-8.9°C 69% 4.0 mph WNW6.4 kmh WNW 12.0 mph19.3 kmh 29.41 in995.9 mb 0.00 in0.0 mm 0.00 in0.0 mm 0.00 in0.0 mm
06:15 AM 24.6°F-4.1°C 15.9°F-8.9°C 69% 4.0 mph WNW6.4 kmh WNW 14.0 mph22.5 kmh 29.41 in995.9 mb 0.00 in0.0 mm 0.00 in0.0 mm 0.00 in0.0 mm
06:30 AM 24.6°F-4.1°C 15.9°F-8.9°C 69% 4.0 mph NW6.4 kmh NW 12.0 mph19.3 kmh 29.41 in995.9 mb 0.00 in0.0 mm 0.00 in0.0 mm 0.00 in0.0 mm
06:45 AM 24.4°F-4.2°C 15.7°F-9.1°C 69% 2.0 mph NW3.2 kmh NW 11.0 mph17.7 kmh 29.41 in995.9 mb 0.00 in0.0 mm 0.00 in0.0 mm 0.00 in0.0 mm
07:00 AM 24.4°F-4.2°C 15.7°F-9.1°C 69% 3.0 mph WNW4.8 kmh WNW 11.0 mph17.7 kmh 29.41 in995.9 mb 0.00 in0.0 mm 0.00 in0.0 mm 0.00 in0.0 mm
07:15 AM 24.1°F-4.4°C 15.0°F-9.4°C 68% 3.0 mph NW4.8 kmh NW 10.0 mph16.1 kmh 29.41 in995.9 mb 0.00 in0.0 mm 0.00 in0.0 mm 0.00 in0.0 mm
07:30 AM 23.5°F-4.7°C 14.9°F-9.5°C 69% 1.0 mph WSW1.6 kmh WSW 4.0 mph6.4 kmh 29.43 in996.6 mb 0.00 in0.0 mm 0.00 in0.0 mm 0.00 in0.0 mm
07:45 AM 22.8°F-5.1°C 14.5°F-9.7°C 70% 1.0 mph W1.6 kmh W 6.0 mph9.7 kmh 29.43 in996.6 mb 0.00 in0.0 mm 0.00 in0.0 mm 0.00 in0.0 mm
08:00 AM 22.8°F-5.1°C 14.8°F-9.6°C 71% 2.0 mph W3.2 kmh W 6.0 mph9.7 kmh 29.44 in997.0 mb 0.00 in0.0 mm 0.00 in0.0 mm 0.00 in0.0 mm
08:15 AM 22.5°F-5.3°C 14.5°F-9.7°C 71% 3.0 mph WSW4.8 kmh WSW 7.0 mph11.3 kmh 29.44 in997.0 mb 0.00 in0.0 mm 0.00 in0.0 mm 0.00 in0.0 mm
08:30 AM 21.9°F-5.6°C 14.0°F-10.0°C 71% 2.0 mph W3.2 kmh W 6.0 mph9.7 kmh 29.44 in997.0 mb 0.00 in0.0 mm 0.00 in0.0 mm 0.00 in0.0 mm
08:45 AM 21.4°F-5.9°C 13.8°F-10.1°C 72% 1.0 mph W1.6 kmh W 4.0 mph6.4 kmh 29.43 in996.6 mb 0.00 in0.0 mm 0.00 in0.0 mm 0.00 in0.0 mm
09:00 AM 20.8°F-6.2°C 13.9°F-10.1°C 74% 1.0 mph W1.6 kmh W 3.0 mph4.8 kmh 29.44 in997.0 mb 0.00 in0.0 mm 0.00 in0.0 mm 0.00 in0.0 mm
09:15 AM 20.7°F-6.3°C 14.0°F-10.0°C 75% 4.0 mph W6.4 kmh W 9.0 mph14.5 kmh 29.43 in996.6 mb 0.00 in0.0 mm 0.00 in0.0 mm 0.00 in0.0 mm
09:30 AM 20.5°F-6.4°C 13.5°F-10.3°C 74% 3.0 mph W4.8 kmh W 8.0 mph12.9 kmh 29.43 in996.6 mb 0.00 in0.0 mm 0.00 in0.0 mm 0.00 in0.0 mm
09:45 AM 20.5°F-6.4°C 13.8°F-10.1°C 75% 3.0 mph WNW4.8 kmh WNW 5.0 mph8.0 kmh 29.43 in996.6 mb 0.00 in0.0 mm 0.00 in0.0 mm 0.00 in0.0 mm
10:00 AM 20.8°F-6.2°C 13.9°F-10.1°C 74% 4.0 mph WNW6.4 kmh WNW 9.0 mph14.5 kmh 29.43 in996.6 mb 0.00 in0.0 mm 0.00 in0.0 mm 0.00 in0.0 mm
10:15 AM 21.6°F-5.8°C 14.2°F-9.9°C 73% 3.0 mph W4.8 kmh W 6.0 mph9.7 kmh 29.42 in996.3 mb 0.00 in0.0 mm 0.00 in0.0 mm 0.00 in0.0 mm
10:30 AM 21.7°F-5.7°C 14.4°F-9.8°C 73% 2.0 mph W3.2 kmh W 6.0 mph9.7 kmh 29.42 in996.3 mb 0.00 in0.0 mm 0.00 in0.0 mm 0.00 in0.0 mm
10:45 AM 21.7°F-5.7°C 14.7°F-9.6°C 74% 3.0 mph W4.8 kmh W 7.0 mph11.3 kmh 29.41 in995.9 mb 0.00 in0.0 mm 0.00 in0.0 mm 0.00 in0.0 mm
11:00 AM 21.6°F-5.8°C 14.6°F-9.7°C 74% 2.0 mph WSW3.2 kmh WSW 6.0 mph9.7 kmh 29.41 in995.9 mb 0.00 in0.0 mm 0.00 in0.0 mm 0.00 in0.0 mm
11:15 AM 21.6°F-5.8°C 14.6°F-9.7°C 74% 2.0 mph W3.2 kmh W 5.0 mph8.0 kmh 29.41 in995.9 mb 0.00 in0.0 mm 0.00 in0.0 mm 0.00 in0.0 mm
11:30 AM 21.6°F-5.8°C 14.9°F-9.5°C 75% 3.0 mph W4.8 kmh W 8.0 mph12.9 kmh 29.40 in995.6 mb 0.00 in0.0 mm 0.00 in0.0 mm 0.00 in0.0 mm
11:45 AM 21.7°F-5.7°C 15.0°F-9.4°C 75% 3.0 mph W4.8 kmh W 10.0 mph16.1 kmh 29.40 in995.6 mb 0.00 in0.0 mm 0.00 in0.0 mm 0.00 in0.0 mm
12:00 PM 21.9°F-5.6°C 14.9°F-9.5°C 74% 3.0 mph W4.8 kmh W 7.0 mph11.3 kmh 29.40 in995.6 mb 0.00 in0.0 mm 0.00 in0.0 mm 0.00 in0.0 mm
12:15 PM 22.3°F-5.4°C 15.2°F-9.3°C 74% 1.0 mph W1.6 kmh W 4.0 mph6.4 kmh 29.39 in995.3 mb 0.00 in0.0 mm 0.00 in0.0 mm 0.00 in0.0 mm
12:30 PM 22.5°F-5.3°C 15.4°F-9.2°C 74% 2.0 mph W3.2 kmh W 5.0 mph8.0 kmh 29.39 in995.3 mb 0.00 in0.0 mm 0.00 in0.0 mm 0.00 in0.0 mm
12:45 PM 22.8°F-5.1°C 15.8°F-9.0°C 74% 1.0 mph W1.6 kmh W 5.0 mph8.0 kmh 29.38 in994.9 mb 0.00 in0.0 mm 0.00 in0.0 mm 0.00 in0.0 mm
01:00 PM 22.8°F-5.1°C 15.5°F-9.2°C 73% 1.0 mph WSW1.6 kmh WSW 3.0 mph4.8 kmh 29.37 in994.6 mb 0.00 in0.0 mm 0.00 in0.0 mm 0.00 in0.0 mm
01:15 PM 22.8°F-5.1°C 15.5°F-9.2°C 73% 1.0 mph WSW1.6 kmh WSW 3.0 mph4.8 kmh 29.36 in994.2 mb 0.00 in0.0 mm 0.00 in0.0 mm 0.00 in0.0 mm
01:30 PM 22.8°F-5.1°C 15.5°F-9.2°C 73% Calm Calm -- 29.35 in993.9 mb 0.00 in0.0 mm 0.00 in0.0 mm 0.00 in0.0 mm
01:45 PM 22.8°F-5.1°C 15.8°F-9.0°C 74% Calm Calm 2.0 mph3.2 kmh 29.35 in993.9 mb 0.00 in0.0 mm 0.00 in0.0 mm 0.00 in0.0 mm
02:00 PM 22.8°F-5.1°C 15.5°F-9.2°C 73% 1.0 mph WSW1.6 kmh WSW 2.0 mph3.2 kmh 29.35 in993.9 mb 0.00 in0.0 mm 0.00 in0.0 mm 0.00 in0.0 mm
02:15 PM 22.8°F-5.1°C 15.5°F-9.2°C 73% Calm Calm 2.0 mph3.2 kmh 29.35 in993.9 mb 0.00 in0.0 mm 0.00 in0.0 mm 0.00 in0.0 mm
02:30 PM 22.8°F-5.1°C 15.8°F-9.0°C 74% Calm Calm -- 29.33 in993.2 mb 0.00 in0.0 mm 0.00 in0.0 mm 0.00 in0.0 mm
02:45 PM 22.8°F-5.1°C 16.1°F-8.8°C 75% Calm Calm -- 29.33 in993.2 mb 0.00 in0.0 mm 0.00 in0.0 mm 0.00 in0.0 mm
03:00 PM 22.8°F-5.1°C 16.1°F-8.8°C 75% Calm Calm -- 29.33 in993.2 mb 0.00 in0.0 mm 0.00 in0.0 mm 0.00 in0.0 mm
03:15 PM 22.8°F-5.1°C 16.1°F-8.8°C 75% Calm Calm -- 29.33 in993.2 mb 0.00 in0.0 mm 0.00 in0.0 mm 0.00 in0.0 mm
03:30 PM 22.8°F-5.1°C 16.1°F-8.8°C 75% Calm Calm -- 29.33 in993.2 mb 0.00 in0.0 mm 0.00 in0.0 mm 0.00 in0.0 mm
03:45 PM 22.8°F-5.1°C 16.4°F-8.7°C 76% Calm Calm -- 29.33 in993.2 mb 0.00 in0.0 mm 0.00 in0.0 mm 0.00 in0.0 mm
04:00 PM 22.8°F-5.1°C 17.0°F-8.3°C 78% Calm Calm 1.0 mph1.6 kmh 29.34 in993.6 mb 0.00 in0.0 mm 0.00 in0.0 mm 0.00 in0.0 mm
04:15 PM 22.8°F-5.1°C 17.0°F-8.3°C 78% Calm Calm -- 29.34 in993.6 mb 0.00 in0.0 mm 0.00 in0.0 mm 0.00 in0.0 mm
04:30 PM 22.8°F-5.1°C 17.6°F-8.0°C 80% Calm Calm -- 29.34 in993.6 mb 0.00 in0.0 mm 0.00 in0.0 mm 0.00 in0.0 mm
04:45 PM 22.5°F-5.3°C 17.5°F-8.1°C 81% Calm Calm -- 29.33 in993.2 mb 0.00 in0.0 mm 0.00 in0.0 mm 0.00 in0.0 mm
05:00 PM 22.3°F-5.4°C 17.6°F-8.0°C 82% Calm Calm -- 29.33 in993.2 mb 0.00 in0.0 mm 0.00 in0.0 mm 0.00 in0.0 mm
05:15 PM 22.1°F-5.5°C 17.7°F-7.9°C 83% Calm Calm 1.0 mph1.6 kmh 29.33 in993.2 mb 0.00 in0.0 mm 0.00 in0.0 mm 0.00 in0.0 mm
05:30 PM 22.1°F-5.5°C 17.7°F-7.9°C 83% Calm Calm 1.0 mph1.6 kmh 29.33 in993.2 mb 0.00 in0.0 mm 0.00 in0.0 mm 0.00 in0.0 mm
05:45 PM 21.9°F-5.6°C 17.8°F-7.9°C 84% Calm Calm 1.0 mph1.6 kmh 29.33 in993.2 mb 0.00 in0.0 mm 0.00 in0.0 mm 0.00 in0.0 mm
06:00 PM 21.9°F-5.6°C 17.8°F-7.9°C 84% Calm Calm 1.0 mph1.6 kmh 29.33 in993.2 mb 0.00 in0.0 mm 0.00 in0.0 mm 0.00 in0.0 mm
06:15 PM 21.9°F-5.6°C 17.8°F-7.9°C 84% Calm Calm -- 29.33 in993.2 mb 0.00 in0.0 mm 0.00 in0.0 mm 0.00 in0.0 mm
06:30 PM 22.1°F-5.5°C 18.3°F-7.6°C 85% Calm Calm -- 29.33 in993.2 mb 0.00 in0.0 mm 0.00 in0.0 mm 0.00 in0.0 mm
06:45 PM 21.9°F-5.6°C 18.1°F-7.7°C 85% Calm Calm -- 29.33 in993.2 mb 0.00 in0.0 mm 0.00 in0.0 mm 0.00 in0.0 mm
07:00 PM 21.9°F-5.6°C 18.1°F-7.7°C 85% Calm Calm -- 29.33 in993.2 mb 0.00 in0.0 mm 0.00 in0.0 mm 0.00 in0.0 mm
07:15 PM 21.9°F-5.6°C 18.4°F-7.6°C 86% Calm Calm 1.0 mph1.6 kmh 29.34 in993.6 mb 0.00 in0.0 mm 0.00 in0.0 mm 0.00 in0.0 mm
07:30 PM 21.9°F-5.6°C 18.4°F-7.6°C 86% Calm Calm 2.0 mph3.2 kmh 29.34 in993.6 mb 0.00 in0.0 mm 0.00 in0.0 mm 0.00 in0.0 mm
07:45 PM 22.1°F-5.5°C 18.8°F-7.3°C 87% Calm Calm 1.0 mph1.6 kmh 29.34 in993.6 mb 0.00 in0.0 mm 0.00 in0.0 mm 0.00 in0.0 mm
08:00 PM 22.1°F-5.5°C 18.8°F-7.3°C 87% Calm Calm -- 29.34 in993.6 mb 0.00 in0.0 mm 0.00 in0.0 mm 0.00 in0.0 mm
08:15 PM 22.1°F-5.5°C 18.8°F-7.3°C 87% Calm Calm 1.0 mph1.6 kmh 29.35 in993.9 mb 0.00 in0.0 mm 0.00 in0.0 mm 0.00 in0.0 mm
08:30 PM 22.1°F-5.5°C 18.8°F-7.3°C 87% Calm Calm -- 29.35 in993.9 mb 0.00 in0.0 mm 0.00 in0.0 mm 0.00 in0.0 mm
08:45 PM 22.3°F-5.4°C 19.0°F-7.2°C 87% Calm Calm 2.0 mph3.2 kmh 29.36 in994.2 mb 0.00 in0.0 mm 0.00 in0.0 mm 0.00 in0.0 mm
09:00 PM 22.3°F-5.4°C 19.0°F-7.2°C 87% Calm Calm -- 29.37 in994.6 mb 0.00 in0.0 mm 0.00 in0.0 mm 0.00 in0.0 mm
09:15 PM 22.3°F-5.4°C 19.0°F-7.2°C 87% Calm Calm -- 29.37 in994.6 mb 0.00 in0.0 mm 0.00 in0.0 mm 0.00 in0.0 mm
09:30 PM 22.5°F-5.3°C 19.2°F-7.1°C 87% Calm Calm -- 29.38 in994.9 mb 0.00 in0.0 mm 0.00 in0.0 mm 0.00 in0.0 mm
09:45 PM 22.5°F-5.3°C 19.2°F-7.1°C 87% Calm Calm -- 29.39 in995.3 mb 0.00 in0.0 mm 0.00 in0.0 mm 0.00 in0.0 mm
10:00 PM 22.6°F-5.2°C 19.6°F-6.9°C 88% Calm Calm -- 29.39 in995.3 mb 0.00 in0.0 mm 0.00 in0.0 mm 0.00 in0.0 mm
10:15 PM 22.6°F-5.2°C 19.6°F-6.9°C 88% Calm Calm -- 29.40 in995.6 mb 0.00 in0.0 mm 0.00 in0.0 mm 0.00 in0.0 mm
10:30 PM 22.8°F-5.1°C 20.1°F-6.6°C 89% Calm Calm -- 29.40 in995.6 mb 0.00 in0.0 mm 0.00 in0.0 mm 0.00 in0.0 mm
10:45 PM 23.2°F-4.9°C 20.7°F-6.3°C 90% Calm Calm -- 29.41 in995.9 mb 0.00 in0.0 mm 0.00 in0.0 mm 0.00 in0.0 mm
11:00 PM 23.4°F-4.8°C 20.9°F-6.2°C 90% Calm Calm -- 29.41 in995.9 mb 0.00 in0.0 mm 0.00 in0.0 mm 0.00 in0.0 mm
11:15 PM 23.4°F-4.8°C 21.1°F-6.1°C 91% Calm Calm -- 29.41 in995.9 mb 0.00 in0.0 mm 0.00 in0.0 mm 0.00 in0.0 mm
11:30 PM 23.2°F-4.9°C 20.9°F-6.2°C 91% Calm Calm 1.0 mph1.6 kmh 29.42 in996.3 mb 0.00 in0.0 mm 0.00 in0.0 mm 0.00 in0.0 mm
11:45 PM 22.8°F-5.1°C 20.6°F-6.3°C 91% Calm Calm -- 29.42 in996.3 mb 0.00 in0.0 mm 0.00 in0.0 mm 0.00 in0.0 mm